createdAt,value
2023-11-23T07:47:08.628Z,22.92
2023-11-23T07:47:19.877Z,22.94
2023-11-23T07:47:31.462Z,22.99
2023-11-23T07:47:43.041Z,23.00
2023-11-23T07:47:54.844Z,23.02
2023-11-23T07:48:06.221Z,23.04
2023-11-23T07:48:17.844Z,23.05
2023-11-23T07:48:29.184Z,23.07
2023-11-23T07:48:40.757Z,23.08
2023-11-23T07:48:52.167Z,23.09
2023-11-23T07:49:03.803Z,23.10
2023-11-23T07:49:15.163Z,23.10
2023-11-23T07:49:26.706Z,23.12
2023-11-23T07:49:37.983Z,23.12
2023-11-23T07:49:49.536Z,23.13
2023-11-23T07:50:00.821Z,23.14
2023-11-23T07:50:12.410Z,23.14
2023-11-23T07:50:23.703Z,23.14
2023-11-23T07:50:35.220Z,23.15
2023-11-23T07:50:46.494Z,23.16
2023-11-23T07:50:58.183Z,23.17
2023-11-23T07:51:09.463Z,23.17
2023-11-23T07:51:21.021Z,23.18
2023-11-23T07:51:32.984Z,23.18
2023-11-23T07:51:44.507Z,23.18
2023-11-23T07:51:55.749Z,23.19
2023-11-23T07:52:07.279Z,23.20
2023-11-23T07:52:18.551Z,23.19
2023-11-23T07:52:30.054Z,23.20
2023-11-23T07:52:41.315Z,23.20
2023-11-23T07:52:52.854Z,23.21
2023-11-23T07:53:04.231Z,23.21
2023-11-23T07:53:15.781Z,23.21
2023-11-23T07:53:27.069Z,23.22
2023-11-23T07:53:38.605Z,23.22
2023-11-23T07:53:49.888Z,23.22
2023-11-23T07:54:01.393Z,23.22
2023-11-23T07:54:12.782Z,23.22
2023-11-23T07:54:24.379Z,23.22
2023-11-23T07:54:35.705Z,23.23
2023-11-23T07:54:47.240Z,23.24
2023-11-23T07:54:58.493Z,23.24
2023-11-23T07:55:10.052Z,23.24
2023-11-23T07:55:21.324Z,23.24
2023-11-23T07:55:32.912Z,23.24
2023-11-23T07:55:44.161Z,23.24
2023-11-23T07:55:55.694Z,23.25
2023-11-23T07:56:06.963Z,23.24
2023-11-23T07:56:18.495Z,23.25
2023-11-23T07:56:29.755Z,23.25
2023-11-23T07:56:41.304Z,23.25
2023-11-23T07:56:52.611Z,23.25
2023-11-23T07:57:04.198Z,23.26
2023-11-23T07:57:15.460Z,23.26
2023-11-23T07:57:27.063Z,23.25
2023-11-23T07:57:38.416Z,23.26
2023-11-23T07:57:50.134Z,23.26
2023-11-23T07:58:01.523Z,23.25
2023-11-23T07:58:13.107Z,23.26
2023-11-23T07:58:24.391Z,23.26
2023-11-23T07:58:35.893Z,23.26
2023-11-23T07:58:47.173Z,23.26
2023-11-23T07:58:58.744Z,23.27
2023-11-23T07:59:10.028Z,23.26
2023-11-23T07:59:21.567Z,23.27
2023-11-23T07:59:32.871Z,23.26
2023-11-23T07:59:44.425Z,23.27
2023-11-23T07:59:55.732Z,23.27
2023-11-23T08:00:07.281Z,23.27
2023-11-23T08:00:18.599Z,23.27
2023-11-23T08:00:30.330Z,23.27
2023-11-23T08:00:42.494Z,23.26
2023-11-23T08:00:51.766Z,23.27
2023-11-23T08:01:03.356Z,23.27
2023-11-23T08:01:15.490Z,23.27
2023-11-23T08:01:27.002Z,23.27
2023-11-23T08:01:38.294Z,23.27
2023-11-23T08:01:49.852Z,23.27
2023-11-23T08:02:01.189Z,23.27
2023-11-23T08:02:12.833Z,23.28
2023-11-23T08:02:24.073Z,23.28
2023-11-23T08:02:35.605Z,23.27
2023-11-23T08:02:46.878Z,23.28
2023-11-23T08:02:58.506Z,23.28
2023-11-23T08:03:10.012Z,23.27
2023-11-23T08:03:21.598Z,23.28
2023-11-23T08:03:32.967Z,23.28
2023-11-23T08:03:44.661Z,23.28
2023-11-23T08:03:56.229Z,23.28
2023-11-23T08:04:07.962Z,23.28
2023-11-23T08:04:19.544Z,23.27
2023-11-23T08:04:31.275Z,23.28
2023-11-23T08:04:43.262Z,23.26
2023-11-23T08:04:54.671Z,23.27
2023-11-23T08:05:06.462Z,23.27
2023-11-23T08:05:17.914Z,23.28
2023-11-23T08:05:29.420Z,23.28
2023-11-23T08:05:40.676Z,23.27
2023-11-23T08:05:52.222Z,23.28
2023-11-23T08:06:03.562Z,23.28
2023-11-23T08:06:15.114Z,23.27
2023-11-23T08:06:26.379Z,23.28
2023-11-23T08:06:37.890Z,23.28
2023-11-23T08:06:49.228Z,23.28
2023-11-23T08:07:00.756Z,23.28
2023-11-23T08:07:12.053Z,23.28
2023-11-23T08:07:23.627Z,23.28
2023-11-23T08:07:34.931Z,23.28
2023-11-23T08:07:46.458Z,23.28
2023-11-23T08:07:57.754Z,23.28
2023-11-23T08:08:09.262Z,23.28
2023-11-23T08:08:20.600Z,23.28
2023-11-23T08:08:32.116Z,23.29
2023-11-23T08:08:43.372Z,23.28
2023-11-23T08:08:54.916Z,23.28
2023-11-23T08:09:06.233Z,23.30
2023-11-23T08:09:17.763Z,23.28
2023-11-23T08:09:29.727Z,23.27
2023-11-23T08:09:40.979Z,23.28
2023-11-23T08:09:52.494Z,23.28
2023-11-23T08:10:03.762Z,23.28
2023-11-23T08:10:15.318Z,23.29
2023-11-23T08:10:26.648Z,23.29
2023-11-23T08:10:38.153Z,23.29
2023-11-23T08:10:49.426Z,23.28
2023-11-23T08:11:01.000Z,23.28
2023-11-23T08:11:12.977Z,23.28
2023-11-23T08:11:24.511Z,23.29
2023-11-23T08:11:35.777Z,23.29
2023-11-23T08:11:47.350Z,23.29
2023-11-23T08:11:58.752Z,23.29
2023-11-23T08:12:10.358Z,23.29
2023-11-23T08:12:21.642Z,23.29
2023-11-23T08:12:33.274Z,23.30
2023-11-23T08:12:44.528Z,23.29
2023-11-23T08:12:56.052Z,23.29
2023-11-23T08:13:07.346Z,23.30
2023-11-23T08:13:18.881Z,23.29
2023-11-23T08:13:30.145Z,23.30
2023-11-23T08:13:41.668Z,23.29
2023-11-23T08:13:52.998Z,23.30
2023-11-23T08:14:04.587Z,23.30
2023-11-23T08:14:16.086Z,23.30
2023-11-23T08:14:27.586Z,23.30
2023-11-23T08:14:38.890Z,23.29
2023-11-23T08:14:50.584Z,23.30
2023-11-23T08:15:01.874Z,23.30
2023-11-23T08:15:13.426Z,23.30
2023-11-23T08:15:24.728Z,23.30
2023-11-23T08:15:36.341Z,23.30
2023-11-23T08:15:47.641Z,23.30
2023-11-23T08:15:59.178Z,23.30
2023-11-23T08:16:10.457Z,23.30
2023-11-23T08:16:22.100Z,23.30
2023-11-23T08:16:33.396Z,23.30
2023-11-23T08:16:44.954Z,23.30
2023-11-23T08:16:56.293Z,23.31
2023-11-23T08:17:07.923Z,23.30
2023-11-23T08:17:19.226Z,23.30
2023-11-23T08:17:30.768Z,23.31
2023-11-23T08:17:51.044Z,23.31
2023-11-23T08:18:01.490Z,23.28
2023-11-23T08:18:08.400Z,23.28
2023-11-23T08:18:18.013Z,23.28
2023-11-23T08:18:36.861Z,23.29
2023-11-23T08:18:49.386Z,23.28
2023-11-23T08:18:53.504Z,23.28
2023-11-23T08:19:04.855Z,23.29
2023-11-23T08:19:16.627Z,23.30
2023-11-23T08:19:27.954Z,23.29
2023-11-23T08:19:39.545Z,23.29
2023-11-23T08:19:50.853Z,23.30
2023-11-23T08:20:02.443Z,23.30
2023-11-23T08:20:13.713Z,23.29
2023-11-23T08:20:25.235Z,23.30
2023-11-23T08:20:36.489Z,23.30
2023-11-23T08:20:48.036Z,23.30
2023-11-23T08:20:59.412Z,23.30
2023-11-23T08:21:10.975Z,23.30
2023-11-23T08:21:22.289Z,23.30
2023-11-23T08:21:33.850Z,23.30
2023-11-23T08:21:47.597Z,23.30
2023-11-23T08:21:56.219Z,23.28
2023-11-23T08:22:07.503Z,23.29
2023-11-23T08:22:19.067Z,23.29
2023-11-23T08:22:30.335Z,23.30
2023-11-23T08:22:41.891Z,23.31
2023-11-23T08:22:53.194Z,23.30
2023-11-23T08:23:04.730Z,23.30
2023-11-23T08:23:15.989Z,23.30
2023-11-23T08:23:27.585Z,23.31
2023-11-23T08:23:38.891Z,23.31
2023-11-23T08:23:50.423Z,23.31
2023-11-23T08:24:01.770Z,23.31
2023-11-23T08:24:13.319Z,23.32
2023-11-23T08:24:24.659Z,23.31
2023-11-23T08:24:36.210Z,23.31
2023-11-23T08:24:47.469Z,23.31
2023-11-23T08:24:59.055Z,23.31
2023-11-23T08:25:10.339Z,23.32
2023-11-23T08:25:21.847Z,23.32
2023-11-23T08:25:33.127Z,23.31
2023-11-23T08:25:44.669Z,23.31
2023-11-23T08:25:55.935Z,23.31
2023-11-23T08:26:07.508Z,23.32
2023-11-23T08:26:18.817Z,23.33
2023-11-23T08:26:30.445Z,23.32
2023-11-23T08:26:41.719Z,23.31
2023-11-23T08:26:53.273Z,23.31
2023-11-23T08:27:04.575Z,23.31
2023-11-23T08:27:16.172Z,23.32
2023-11-23T08:27:27.456Z,23.32
2023-11-23T08:27:39.527Z,23.32
2023-11-23T08:27:51.157Z,23.32
2023-11-23T08:28:02.459Z,23.32
2023-11-23T08:28:13.978Z,23.32
2023-11-23T08:28:25.248Z,23.32
2023-11-23T08:28:36.779Z,23.32
2023-11-23T08:28:48.091Z,23.32
2023-11-23T08:28:59.644Z,23.31
2023-11-23T08:29:10.924Z,23.32
2023-11-23T08:29:22.453Z,23.32
2023-11-23T08:29:33.747Z,23.32
2023-11-23T08:29:45.273Z,23.32
2023-11-23T08:29:56.658Z,23.32
2023-11-23T08:30:08.203Z,23.32
2023-11-23T08:30:19.482Z,23.31
2023-11-23T08:30:31.069Z,23.32
2023-11-23T08:30:42.435Z,23.32
2023-11-23T08:30:54.268Z,23.32
2023-11-23T08:31:05.595Z,23.31
2023-11-23T08:31:17.220Z,23.32
2023-11-23T08:31:28.572Z,23.32
2023-11-23T08:31:40.107Z,23.32
2023-11-23T08:31:51.409Z,23.32
2023-11-23T08:32:02.946Z,23.32
2023-11-23T08:32:14.333Z,23.33
2023-11-23T08:32:25.883Z,23.32
2023-11-23T08:32:37.131Z,23.32
2023-11-23T08:32:48.687Z,23.32
2023-11-23T08:33:00.068Z,23.32
2023-11-23T08:33:11.666Z,23.33
2023-11-23T08:33:22.980Z,23.32
2023-11-23T08:33:34.556Z,23.32
2023-11-23T08:33:45.945Z,23.32
2023-11-23T08:33:57.536Z,23.32
2023-11-23T08:34:08.888Z,23.33
2023-11-23T08:34:20.541Z,23.32
2023-11-23T08:34:31.783Z,23.32
2023-11-23T08:34:44.860Z,23.33
2023-11-23T08:34:54.319Z,23.33
2023-11-23T08:35:05.848Z,23.32
2023-11-23T08:35:17.125Z,23.33
2023-11-23T08:35:28.663Z,23.33
2023-11-23T08:35:39.953Z,23.33
2023-11-23T08:35:51.527Z,23.33
2023-11-23T08:36:02.813Z,23.32
2023-11-23T08:36:14.418Z,23.32
2023-11-23T08:36:25.851Z,23.32
2023-11-23T08:36:37.494Z,23.33
2023-11-23T08:36:48.764Z,23.32
2023-11-23T08:37:00.293Z,23.33
2023-11-23T08:37:11.578Z,23.33
2023-11-23T08:37:23.124Z,23.32
2023-11-23T08:37:34.412Z,23.33
2023-11-23T08:37:45.921Z,23.33
2023-11-23T08:37:57.206Z,23.33
2023-11-23T08:38:08.757Z,23.34
2023-11-23T08:38:20.035Z,23.33
2023-11-23T08:38:31.543Z,23.33
2023-11-23T08:38:42.826Z,23.34
2023-11-23T08:38:54.433Z,23.33
2023-11-23T08:39:05.700Z,23.33
2023-11-23T08:39:17.310Z,23.33
2023-11-23T08:39:28.637Z,23.33
2023-11-23T08:39:40.160Z,23.33
2023-11-23T08:39:51.429Z,23.33
2023-11-23T08:40:02.959Z,23.33
2023-11-23T08:40:14.268Z,23.33
2023-11-23T08:40:25.820Z,23.33
2023-11-23T08:40:37.104Z,23.33
2023-11-23T08:40:48.621Z,23.33
2023-11-23T08:40:59.891Z,23.33
2023-11-23T08:41:11.423Z,23.33
2023-11-23T08:41:22.673Z,23.33
2023-11-23T08:41:34.227Z,23.33
2023-11-23T08:41:45.540Z,23.33
2023-11-23T08:41:57.328Z,23.33
2023-11-23T08:42:08.604Z,23.33
2023-11-23T08:42:20.233Z,23.34
2023-11-23T08:42:31.576Z,23.34
2023-11-23T08:42:43.183Z,23.33
2023-11-23T08:42:54.525Z,23.33
2023-11-23T08:43:06.182Z,23.34
2023-11-23T08:43:17.411Z,23.34
2023-11-23T08:43:28.956Z,23.33
2023-11-23T08:43:40.278Z,23.34
2023-11-23T08:43:51.765Z,23.34
2023-11-23T08:44:03.036Z,23.35
2023-11-23T08:44:14.620Z,23.34
2023-11-23T08:44:25.882Z,23.34
2023-11-23T08:44:37.446Z,23.35
2023-11-23T08:44:48.703Z,23.34
2023-11-23T08:45:00.427Z,23.34
2023-11-23T08:45:11.861Z,23.35
2023-11-23T08:45:23.480Z,23.34
2023-11-23T08:45:34.999Z,23.35
2023-11-23T08:45:46.679Z,23.35
2023-11-23T08:45:57.988Z,23.35
2023-11-23T08:46:09.537Z,23.36
2023-11-23T08:46:20.894Z,23.35
2023-11-23T08:46:32.501Z,23.35
2023-11-23T08:46:43.788Z,23.35
2023-11-23T08:46:55.399Z,23.35
2023-11-23T08:47:06.730Z,23.35
2023-11-23T08:47:18.312Z,23.36
2023-11-23T08:47:29.849Z,23.36
2023-11-23T08:47:41.436Z,23.37
2023-11-23T08:47:52.785Z,23.36
2023-11-23T08:48:04.469Z,23.37
2023-11-23T08:48:15.837Z,23.37
2023-11-23T08:48:27.534Z,23.38
2023-11-23T08:48:38.866Z,23.37
2023-11-23T08:48:50.543Z,23.36
2023-11-23T08:49:01.835Z,23.37
2023-11-23T08:49:13.344Z,23.37
2023-11-23T08:49:24.589Z,23.38
2023-11-23T08:49:36.263Z,23.39
2023-11-23T08:49:47.547Z,23.38
2023-11-23T08:49:59.084Z,23.38
2023-11-23T08:50:10.353Z,23.39
2023-11-23T08:50:21.863Z,23.39
2023-11-23T08:50:33.132Z,23.39
2023-11-23T08:50:44.674Z,23.39
2023-11-23T08:50:55.949Z,23.40
2023-11-23T08:51:07.540Z,23.39
2023-11-23T08:51:18.948Z,23.40
2023-11-23T08:51:30.466Z,23.40
2023-11-23T08:51:41.773Z,23.40
2023-11-23T08:51:53.307Z,23.40
2023-11-23T08:52:04.615Z,23.41
2023-11-23T08:52:16.149Z,23.41
2023-11-23T08:52:27.464Z,23.41
2023-11-23T08:52:39.084Z,23.42
2023-11-23T08:52:50.439Z,23.42
2023-11-23T08:53:01.922Z,23.42
2023-11-23T08:53:13.201Z,23.42
2023-11-23T08:53:24.734Z,23.43
2023-11-23T08:53:35.997Z,23.42
2023-11-23T08:53:47.611Z,23.43
2023-11-23T08:53:58.974Z,23.43
2023-11-23T08:54:10.529Z,23.43
2023-11-23T08:54:21.834Z,23.43
2023-11-23T08:54:33.398Z,23.44
2023-11-23T08:54:44.668Z,23.44
2023-11-23T08:54:56.175Z,23.44
2023-11-23T08:55:07.447Z,23.44
2023-11-23T08:55:18.982Z,23.44
2023-11-23T08:55:30.243Z,23.44
2023-11-23T08:55:41.779Z,23.45
2023-11-23T08:55:53.078Z,23.45
2023-11-23T08:56:04.590Z,23.46
2023-11-23T08:56:17.307Z,23.45
2023-11-23T08:56:26.595Z,23.45
2023-11-23T08:56:38.135Z,23.46
2023-11-23T08:56:49.432Z,23.46
2023-11-23T08:57:00.995Z,23.47
2023-11-23T08:57:12.273Z,23.47
2023-11-23T08:57:23.787Z,23.47
2023-11-23T08:57:35.107Z,23.47
2023-11-23T08:57:46.606Z,23.47
2023-11-23T08:57:57.897Z,23.47
2023-11-23T08:58:09.413Z,23.48
2023-11-23T08:58:20.678Z,23.48
2023-11-23T08:58:32.215Z,23.48
2023-11-23T08:58:43.634Z,23.49
2023-11-23T08:58:55.167Z,23.49
2023-11-23T08:59:06.448Z,23.49
2023-11-23T08:59:17.998Z,23.49
2023-11-23T08:59:29.255Z,23.50
2023-11-23T08:59:40.812Z,23.50
2023-11-23T08:59:52.114Z,23.50
2023-11-23T09:00:03.741Z,23.51
2023-11-23T09:00:15.087Z,23.51
2023-11-23T09:00:26.638Z,23.51
2023-11-23T09:00:38.061Z,23.51
2023-11-23T09:00:49.641Z,23.52
2023-11-23T09:01:00.894Z,23.52
2023-11-23T09:01:12.476Z,23.52
2023-11-23T09:01:23.826Z,23.53
2023-11-23T09:01:35.490Z,23.52
2023-11-23T09:01:50.869Z,23.53
2023-11-23T09:02:02.428Z,23.51
2023-11-23T09:02:17.427Z,23.50
2023-11-23T09:02:22.736Z,23.50
2023-11-23T09:02:34.091Z,23.51
2023-11-23T09:02:45.706Z,23.52
2023-11-23T09:02:57.230Z,23.53
2023-11-23T09:03:08.930Z,23.53
2023-11-23T09:03:20.304Z,23.53
2023-11-23T09:03:32.014Z,23.54
2023-11-23T09:03:43.506Z,23.54
2023-11-23T09:03:55.216Z,23.54
2023-11-23T09:04:06.722Z,23.55
2023-11-23T09:04:18.473Z,23.56
2023-11-23T09:04:36.547Z,23.55
2023-11-23T09:04:45.158Z,23.53
2023-11-23T09:04:53.013Z,23.54
2023-11-23T09:05:04.483Z,23.55
2023-11-23T09:05:16.236Z,23.55
2023-11-23T09:05:27.712Z,23.56
2023-11-23T09:05:39.409Z,23.56
2023-11-23T09:05:50.871Z,23.57
2023-11-23T09:06:02.468Z,23.57
2023-11-23T09:06:13.941Z,23.58
2023-11-23T09:06:25.718Z,23.58
2023-11-23T09:06:37.025Z,23.58
2023-11-23T09:06:48.590Z,23.59
2023-11-23T09:06:59.871Z,23.59
2023-11-23T09:07:11.440Z,23.59
2023-11-23T09:07:22.785Z,23.59
2023-11-23T09:07:34.378Z,23.60
2023-11-23T09:07:45.636Z,23.60
2023-11-23T09:07:57.191Z,23.60
2023-11-23T09:08:08.465Z,23.61
2023-11-23T09:08:20.071Z,23.61
2023-11-23T09:08:31.307Z,23.61
2023-11-23T09:08:42.869Z,23.61
2023-11-23T09:08:54.213Z,23.62
2023-11-23T09:09:05.776Z,23.62
2023-11-23T09:09:17.898Z,23.62
2023-11-23T09:09:27.771Z,23.62
2023-11-23T09:09:40.062Z,23.63
2023-11-23T09:09:51.593Z,23.63
2023-11-23T09:10:02.895Z,23.63
2023-11-23T09:10:14.402Z,23.64
2023-11-23T09:10:25.669Z,23.64
2023-11-23T09:10:37.209Z,23.64
2023-11-23T09:10:48.487Z,23.64
2023-11-23T09:11:00.090Z,23.64
2023-11-23T09:11:11.353Z,23.65
2023-11-23T09:11:22.937Z,23.65
2023-11-23T09:11:34.249Z,23.65
2023-11-23T09:11:45.780Z,23.66
2023-11-23T09:11:57.095Z,23.66
2023-11-23T09:12:08.876Z,23.66
2023-11-23T09:12:20.383Z,23.66
2023-11-23T09:12:32.104Z,23.66
2023-11-23T09:12:43.397Z,23.67
2023-11-23T09:12:54.958Z,23.67
2023-11-23T09:13:06.306Z,23.67
2023-11-23T09:13:17.879Z,23.68
2023-11-23T09:13:29.184Z,23.68
2023-11-23T09:13:40.764Z,23.68
2023-11-23T09:13:52.033Z,23.68
2023-11-23T09:14:03.583Z,23.68
2023-11-23T09:14:14.861Z,23.69
2023-11-23T09:14:26.392Z,23.69
2023-11-23T09:14:46.783Z,23.69
2023-11-23T09:14:50.271Z,23.67
2023-11-23T09:15:02.127Z,23.69
2023-11-23T09:15:13.454Z,23.69
2023-11-23T09:15:25.051Z,23.69
2023-11-23T09:15:36.440Z,23.71
2023-11-23T09:15:48.009Z,23.72
2023-11-23T09:15:59.378Z,23.70
2023-11-23T09:16:10.938Z,23.72
2023-11-23T09:16:22.228Z,23.72
2023-11-23T09:16:33.784Z,23.72
2023-11-23T09:16:45.060Z,23.72
2023-11-23T09:16:56.618Z,23.72
2023-11-23T09:17:07.900Z,23.72
2023-11-23T09:17:19.453Z,23.73
2023-11-23T09:17:30.878Z,23.73
2023-11-23T09:17:42.452Z,23.74
2023-11-23T09:17:53.807Z,23.74
2023-11-23T09:18:05.528Z,23.74
2023-11-23T09:18:17.059Z,23.74
2023-11-23T09:18:28.738Z,23.75
2023-11-23T09:18:40.174Z,23.75
2023-11-23T09:18:51.826Z,23.75
2023-11-23T09:19:03.228Z,23.75
2023-11-23T09:19:14.821Z,23.75
2023-11-23T09:19:26.123Z,23.76
2023-11-23T09:19:37.709Z,23.76
2023-11-23T09:19:48.987Z,23.76
2023-11-23T09:20:00.522Z,23.77
2023-11-23T09:20:11.810Z,23.77
2023-11-23T09:20:23.378Z,23.77
2023-11-23T09:20:34.652Z,23.77
2023-11-23T09:20:46.306Z,23.78
2023-11-23T09:20:59.280Z,23.77
2023-11-23T09:21:08.043Z,23.76
2023-11-23T09:21:19.496Z,23.77
2023-11-23T09:21:31.058Z,23.77
2023-11-23T09:21:42.437Z,23.77
2023-11-23T09:21:53.983Z,23.79
2023-11-23T09:22:05.242Z,23.78
2023-11-23T09:22:16.834Z,23.79
2023-11-23T09:22:28.139Z,23.79
2023-11-23T09:22:39.697Z,23.79
2023-11-23T09:22:50.974Z,23.79
2023-11-23T09:23:03.038Z,23.79
2023-11-23T09:23:15.291Z,23.80
2023-11-23T09:23:26.857Z,23.81
2023-11-23T09:23:38.154Z,23.81
2023-11-23T09:23:49.691Z,23.81
2023-11-23T09:24:00.988Z,23.81
2023-11-23T09:24:12.590Z,23.81
2023-11-23T09:24:23.887Z,23.81
2023-11-23T09:24:35.464Z,23.82
2023-11-23T09:24:46.761Z,23.82
2023-11-23T09:24:58.298Z,23.82
2023-11-23T09:25:09.565Z,23.82
2023-11-23T09:25:21.100Z,23.83
2023-11-23T09:25:32.401Z,23.82
2023-11-23T09:25:43.967Z,23.83
2023-11-23T09:25:55.250Z,23.83
2023-11-23T09:26:06.822Z,23.84
2023-11-23T09:26:18.101Z,23.83
2023-11-23T09:26:29.644Z,23.84
2023-11-23T09:26:40.922Z,23.84
2023-11-23T09:26:52.555Z,23.84
2023-11-23T09:27:03.978Z,23.84
2023-11-23T09:27:15.588Z,23.84
2023-11-23T09:27:27.530Z,23.83
2023-11-23T09:27:38.945Z,23.84
2023-11-23T09:27:50.592Z,23.84
2023-11-23T09:28:01.861Z,23.85
2023-11-23T09:28:13.428Z,23.85
2023-11-23T09:28:24.760Z,23.85
2023-11-23T09:28:36.267Z,23.86
2023-11-23T09:28:47.585Z,23.86
2023-11-23T09:28:59.077Z,23.87
2023-11-23T09:29:10.337Z,23.87
2023-11-23T09:29:21.888Z,23.87
2023-11-23T09:29:33.163Z,23.87
2023-11-23T09:29:44.671Z,23.87
2023-11-23T09:29:55.968Z,23.88
2023-11-23T09:30:07.619Z,23.88
2023-11-23T09:30:19.164Z,23.87
2023-11-23T09:30:30.757Z,23.88
2023-11-23T09:30:42.018Z,23.88
2023-11-23T09:30:53.534Z,23.88
2023-11-23T09:31:04.824Z,23.89
2023-11-23T09:31:16.406Z,23.89
2023-11-23T09:31:27.770Z,23.89
2023-11-23T09:31:39.259Z,23.89
2023-11-23T09:31:50.616Z,23.89
2023-11-23T09:32:02.165Z,23.89
2023-11-23T09:32:13.425Z,23.89
2023-11-23T09:32:25.027Z,23.90
2023-11-23T09:32:36.326Z,23.90
2023-11-23T09:32:47.948Z,23.90
2023-11-23T09:32:59.273Z,23.91
2023-11-23T09:33:11.425Z,23.91
2023-11-23T09:33:24.470Z,23.91
2023-11-23T09:33:34.591Z,23.92
2023-11-23T09:33:46.285Z,23.92
2023-11-23T09:33:57.618Z,23.91
2023-11-23T09:34:09.184Z,23.91
2023-11-23T09:34:20.495Z,23.91
2023-11-23T09:34:32.018Z,23.91
2023-11-23T09:34:43.360Z,23.91
2023-11-23T09:34:54.909Z,23.93
2023-11-23T09:35:06.290Z,23.92
2023-11-23T09:35:17.937Z,23.93
2023-11-23T09:35:29.196Z,23.93
2023-11-23T09:35:40.736Z,23.93
2023-11-23T09:35:52.048Z,23.93
2023-11-23T09:36:04.046Z,23.94
2023-11-23T09:36:15.853Z,23.95
2023-11-23T09:36:27.134Z,23.94
2023-11-23T09:36:38.746Z,23.95
2023-11-23T09:36:50.140Z,23.93
2023-11-23T09:37:01.669Z,23.94
2023-11-23T09:37:12.961Z,23.95
2023-11-23T09:37:24.506Z,23.95
2023-11-23T09:37:35.787Z,23.95
2023-11-23T09:37:47.294Z,23.95
2023-11-23T09:37:58.535Z,23.95
2023-11-23T09:38:10.087Z,23.96
2023-11-23T09:38:21.343Z,23.96
2023-11-23T09:38:32.950Z,23.96
2023-11-23T09:38:44.200Z,23.97
2023-11-23T09:38:55.854Z,23.96
2023-11-23T09:39:07.148Z,23.96
2023-11-23T09:39:20.034Z,23.97
2023-11-23T09:39:30.404Z,23.97
2023-11-23T09:39:41.949Z,23.97
2023-11-23T09:39:53.227Z,23.98
2023-11-23T09:40:04.767Z,23.98
2023-11-23T09:40:16.076Z,23.98
2023-11-23T09:40:27.661Z,23.98
2023-11-23T09:40:39.028Z,23.98
2023-11-23T09:40:50.585Z,23.98
2023-11-23T09:41:01.846Z,23.99
2023-11-23T09:41:13.369Z,23.99
2023-11-23T09:41:24.783Z,23.99
2023-11-23T09:41:36.297Z,23.99
2023-11-23T09:41:47.554Z,23.99
2023-11-23T09:41:59.472Z,24.00
2023-11-23T09:42:11.136Z,24.01
2023-11-23T09:42:22.461Z,24.00
2023-11-23T09:42:34.152Z,24.01
2023-11-23T09:42:45.526Z,24.00
2023-11-23T09:42:57.039Z,24.00
2023-11-23T09:43:08.383Z,24.01
2023-11-23T09:43:19.889Z,24.01
2023-11-23T09:43:31.235Z,24.01
2023-11-23T09:43:42.796Z,24.01
2023-11-23T09:43:54.082Z,24.02
2023-11-23T09:44:05.683Z,24.02
2023-11-23T09:44:16.972Z,24.02
2023-11-23T09:44:28.588Z,24.02
2023-11-23T09:44:39.881Z,24.02
2023-11-23T09:44:51.469Z,24.02
2023-11-23T09:45:02.769Z,24.03
2023-11-23T09:45:14.416Z,24.03
2023-11-23T09:45:26.820Z,24.03
2023-11-23T09:45:36.244Z,24.03
2023-11-23T09:45:47.941Z,24.03
2023-11-23T09:45:59.353Z,24.03
2023-11-23T09:46:11.038Z,24.04
2023-11-23T09:46:22.351Z,24.04
2023-11-23T09:46:33.994Z,24.04
2023-11-23T09:46:45.302Z,24.05
2023-11-23T09:46:56.887Z,24.04
2023-11-23T09:47:08.144Z,24.05
2023-11-23T09:47:19.724Z,24.05
2023-11-23T09:47:31.004Z,24.05
2023-11-23T09:47:42.551Z,24.05
2023-11-23T09:47:53.947Z,24.06
2023-11-23T09:48:05.711Z,24.06
2023-11-23T09:48:17.115Z,24.06
2023-11-23T09:48:28.677Z,24.06
2023-11-23T09:48:39.974Z,24.05
2023-11-23T09:48:51.554Z,24.06
2023-11-23T09:49:02.832Z,24.07
2023-11-23T09:49:14.484Z,24.07
2023-11-23T09:49:25.736Z,24.07
2023-11-23T09:49:37.294Z,24.07
2023-11-23T09:49:48.553Z,24.07
2023-11-23T09:50:00.142Z,24.08
2023-11-23T09:50:11.540Z,24.08
2023-11-23T09:50:24.136Z,24.08
2023-11-23T09:50:37.147Z,24.09
2023-11-23T09:50:45.253Z,24.06
2023-11-23T09:50:56.589Z,24.08
2023-11-23T09:51:08.259Z,24.08
2023-11-23T09:51:19.591Z,24.09
2023-11-23T09:51:31.132Z,24.08
2023-11-23T09:51:42.389Z,24.09
2023-11-23T09:51:53.909Z,24.10
2023-11-23T09:52:05.206Z,24.10
2023-11-23T09:52:16.710Z,24.10
2023-11-23T09:52:27.985Z,24.10
2023-11-23T09:52:39.572Z,24.10
2023-11-23T09:52:50.841Z,24.11
2023-11-23T09:53:02.397Z,24.11
2023-11-23T09:53:13.665Z,24.11
2023-11-23T09:53:25.251Z,24.11
2023-11-23T09:53:36.532Z,24.11
2023-11-23T09:53:48.088Z,24.12
2023-11-23T09:53:59.379Z,24.11
2023-11-23T09:54:10.932Z,24.12
2023-11-23T09:54:22.235Z,24.12
2023-11-23T09:54:33.892Z,24.12
2023-11-23T09:54:45.358Z,24.12
2023-11-23T09:54:56.921Z,24.13
2023-11-23T09:55:08.212Z,24.13
2023-11-23T09:55:19.751Z,24.13
2023-11-23T09:55:31.103Z,24.13
2023-11-23T09:55:42.653Z,24.14
2023-11-23T09:55:54.022Z,24.14
2023-11-23T09:56:05.588Z,24.14
2023-11-23T09:56:16.877Z,24.14
2023-11-23T09:56:28.433Z,24.14
2023-11-23T09:56:39.728Z,24.14
2023-11-23T09:56:51.250Z,24.14
2023-11-23T09:57:02.926Z,24.15
2023-11-23T09:57:14.647Z,24.14
2023-11-23T09:57:25.934Z,24.14
2023-11-23T09:57:37.589Z,24.15
2023-11-23T09:57:48.851Z,24.15
2023-11-23T09:58:00.426Z,24.15
2023-11-23T09:58:11.672Z,24.15
2023-11-23T09:58:23.215Z,24.16
2023-11-23T09:58:34.499Z,24.16
2023-11-23T09:58:46.045Z,24.16
2023-11-23T09:58:57.319Z,24.16
2023-11-23T09:59:08.947Z,24.17
2023-11-23T09:59:20.267Z,24.17
2023-11-23T09:59:31.789Z,24.17
2023-11-23T09:59:43.037Z,24.17
2023-11-23T09:59:54.599Z,24.18
2023-11-23T10:00:05.871Z,24.18
2023-11-23T10:00:17.514Z,24.18
2023-11-23T10:00:28.815Z,24.17
2023-11-23T10:00:40.357Z,24.18
2023-11-23T10:00:51.618Z,24.18
2023-11-23T10:01:03.188Z,24.19
2023-11-23T10:01:14.501Z,24.19
2023-11-23T10:01:26.037Z,24.19
2023-11-23T10:01:37.325Z,24.18
2023-11-23T10:01:49.435Z,24.19
2023-11-23T10:02:01.217Z,24.20
2023-11-23T10:02:12.659Z,24.19
2023-11-23T10:02:24.277Z,24.20
2023-11-23T10:02:37.400Z,24.20
2023-11-23T10:02:46.916Z,24.18
2023-11-23T10:02:58.650Z,24.19
2023-11-23T10:03:10.202Z,24.20
2023-11-23T10:03:21.902Z,24.20
2023-11-23T10:03:33.305Z,24.21
2023-11-23T10:03:44.990Z,24.21
2023-11-23T10:03:56.468Z,24.21
2023-11-23T10:04:08.087Z,24.22
2023-11-23T10:04:19.562Z,24.21
2023-11-23T10:04:31.183Z,24.22
2023-11-23T10:04:42.570Z,24.22
2023-11-23T10:04:54.145Z,24.22
2023-11-23T10:05:06.119Z,24.22
2023-11-23T10:05:17.829Z,24.22
2023-11-23T10:05:29.162Z,24.22
2023-11-23T10:05:40.685Z,24.23
2023-11-23T10:05:51.956Z,24.23
2023-11-23T10:06:03.558Z,24.24
2023-11-23T10:06:14.945Z,24.24
2023-11-23T10:06:26.568Z,24.23
2023-11-23T10:06:37.895Z,24.23
2023-11-23T10:06:49.431Z,24.24
2023-11-23T10:07:00.696Z,24.24
2023-11-23T10:07:12.216Z,24.25
2023-11-23T10:07:23.497Z,24.25
2023-11-23T10:07:35.012Z,24.25
2023-11-23T10:07:46.416Z,24.24
2023-11-23T10:07:57.936Z,24.25
2023-11-23T10:08:09.231Z,24.25
2023-11-23T10:08:20.732Z,24.26
2023-11-23T10:08:34.695Z,24.25
2023-11-23T10:08:42.600Z,24.24
2023-11-23T10:08:53.933Z,24.25
2023-11-23T10:09:05.488Z,24.26
2023-11-23T10:09:16.812Z,24.26
2023-11-23T10:09:28.453Z,24.26
2023-11-23T10:09:39.787Z,24.27
2023-11-23T10:09:51.295Z,24.26
2023-11-23T10:10:02.584Z,24.27
2023-11-23T10:10:14.212Z,24.27
2023-11-23T10:10:25.459Z,24.27
2023-11-23T10:10:37.032Z,24.27
2023-11-23T10:10:48.285Z,24.27
2023-11-23T10:10:59.810Z,24.29
2023-11-23T10:11:11.075Z,24.28
2023-11-23T10:11:22.590Z,24.28
2023-11-23T10:11:33.859Z,24.28
2023-11-23T10:11:45.387Z,24.28
2023-11-23T10:11:56.749Z,24.28
2023-11-23T10:12:08.306Z,24.29
2023-11-23T10:12:19.711Z,24.29
2023-11-23T10:12:31.331Z,24.29
2023-11-23T10:12:42.719Z,24.29
2023-11-23T10:12:54.250Z,24.29
2023-11-23T10:13:05.547Z,24.30
2023-11-23T10:13:17.184Z,24.30
2023-11-23T10:13:27.266Z,24.30
2023-11-23T10:13:38.820Z,24.31
2023-11-23T10:13:50.144Z,24.31
2023-11-23T10:14:01.695Z,24.31
2023-11-23T10:14:13.177Z,24.31
2023-11-23T10:14:24.691Z,24.31
2023-11-23T10:14:36.063Z,24.31